sensor_id;sensor_type;location;lat;lon;timestamp;pressure;altitude;pressure_sealevel;temperature;humidity
76687;BME280;65615;47.378;19.344;2024-02-16T05:30:09;100973.00;;;3.37;100.00
76687;BME280;65615;47.378;19.344;2024-02-16T05:34:14;100979.81;;;3.26;100.00
76687;BME280;65615;47.378;19.344;2024-02-16T05:38:17;100978.81;;;3.42;100.00
76687;BME280;65615;47.378;19.344;2024-02-16T05:42:35;100979.53;;;3.44;100.00
76687;BME280;65615;47.378;19.344;2024-02-16T05:46:38;100982.34;;;3.27;100.00
76687;BME280;65615;47.378;19.344;2024-02-16T05:50:41;100981.69;;;3.24;100.00
76687;BME280;65615;47.378;19.344;2024-02-16T05:54:47;100982.53;;;3.53;100.00
76687;BME280;65615;47.378;19.344;2024-02-16T05:58:53;100992.22;;;3.36;100.00
76687;BME280;65615;47.378;19.344;2024-02-16T06:02:56;100992.03;;;3.25;100.00
76687;BME280;65615;47.378;19.344;2024-02-16T06:06:59;100998.38;;;3.21;100.00
76687;BME280;65615;47.378;19.344;2024-02-16T06:11:02;101007.41;;;3.16;100.00
76687;BME280;65615;47.378;19.344;2024-02-16T06:15:07;101006.56;;;3.29;100.00
76687;BME280;65615;47.378;19.344;2024-02-16T06:19:11;101009.00;;;3.47;100.00
76687;BME280;65615;47.378;19.344;2024-02-16T06:23:14;101020.09;;;3.36;100.00
76687;BME280;65615;47.378;19.344;2024-02-16T06:27:19;101020.75;;;3.39;100.00
76687;BME280;65615;47.378;19.344;2024-02-16T06:31:23;101026.19;;;3.36;100.00
76687;BME280;65615;47.378;19.344;2024-02-16T06:35:26;101032.88;;;3.55;100.00
76687;BME280;65615;47.378;19.344;2024-02-16T06:39:39;101037.75;;;3.61;100.00
76687;BME280;65615;47.378;19.344;2024-02-16T06:43:57;101024.84;;;3.72;100.00
76687;BME280;65615;47.378;19.344;2024-02-16T06:48:38;101034.75;;;3.81;100.00
76687;BME280;65615;47.378;19.344;2024-02-16T06:52:42;101038.59;;;4.02;100.00
76687;BME280;65615;47.378;19.344;2024-02-16T06:57:02;101040.09;;;4.06;100.00
76687;BME280;65615;47.378;19.344;2024-02-16T07:01:16;101044.53;;;4.18;100.00
76687;BME280;65615;47.378;19.344;2024-02-16T07:05:23;101050.44;;;4.48;100.00
76687;BME280;65615;47.378;19.344;2024-02-16T07:09:29;101042.69;;;4.59;100.00
76687;BME280;65615;47.378;19.344;2024-02-16T07:13:39;101052.91;;;4.76;100.00
76687;BME280;65615;47.378;19.344;2024-02-16T07:17:51;101062.62;;;5.13;100.00
76687;BME280;65615;47.378;19.344;2024-02-16T07:21:56;101066.59;;;5.32;100.00
76687;BME280;65615;47.378;19.344;2024-02-16T07:25:59;101066.63;;;5.57;100.00
76687;BME280;65615;47.378;19.344;2024-02-16T07:30:12;101068.81;;;5.63;100.00
76687;BME280;65615;47.378;19.344;2024-02-16T07:34:46;101062.72;;;5.87;100.00
76687;BME280;65615;47.378;19.344;2024-02-16T07:39:12;101078.25;;;5.90;100.00
76687;BME280;65615;47.378;19.344;2024-02-16T07:43:21;101067.41;;;6.08;100.00
76687;BME280;65615;47.378;19.344;2024-02-16T07:47:32;101075.53;;;6.28;100.00
76687;BME280;65615;47.378;19.344;2024-02-16T07:52:18;101068.91;;;6.59;100.00
76687;BME280;65615;47.378;19.344;2024-02-16T07:56:56;101075.34;;;6.55;100.00
76687;BME280;65615;47.378;19.344;2024-02-16T08:01:29;101071.06;;;6.88;100.00
76687;BME280;65615;47.378;19.344;2024-02-16T08:05:38;101069.50;;;7.32;100.00
76687;BME280;65615;47.378;19.344;2024-02-16T08:09:45;101076.00;;;7.61;100.00
76687;BME280;65615;47.378;19.344;2024-02-16T08:14:00;101067.25;;;7.94;100.00
76687;BME280;65615;47.378;19.344;2024-02-16T08:18:21;101062.12;;;8.25;100.00
76687;BME280;65615;47.378;19.344;2024-02-16T08:22:45;101064.37;;;8.30;100.00
76687;BME280;65615;47.378;19.344;2024-02-16T08:26:48;101063.94;;;8.68;100.00
76687;BME280;65615;47.378;19.344;2024-02-16T08:31:10;101068.06;;;9.02;100.00
76687;BME280;65615;47.378;19.344;2024-02-16T08:35:32;101064.97;;;9.38;100.00
76687;BME280;65615;47.378;19.344;2024-02-16T08:39:39;101073.09;;;9.46;100.00
76687;BME280;65615;47.378;19.344;2024-02-16T08:43:46;101074.75;;;9.47;100.00
76687;BME280;65615;47.378;19.344;2024-02-16T08:47:56;101069.94;;;9.82;100.00
76687;BME280;65615;47.378;19.344;2024-02-16T08:52:06;101077.94;;;9.71;100.00
76687;BME280;65615;47.378;19.344;2024-02-16T08:56:40;101083.81;;;9.84;100.00
76687;BME280;65615;47.378;19.344;2024-02-16T09:00:55;101085.19;;;9.79;100.00
76687;BME280;65615;47.378;19.344;2024-02-16T09:05:04;101083.28;;;9.90;100.00
76687;BME280;65615;47.378;19.344;2024-02-16T09:09:30;101076.50;;;10.18;100.00
76687;BME280;65615;47.378;19.344;2024-02-16T09:13:35;101080.78;;;11.16;99.06
76687;BME280;65615;47.378;19.344;2024-02-16T09:17:47;101082.88;;;11.68;89.54
76687;BME280;65615;47.378;19.344;2024-02-16T09:22:21;101077.63;;;12.23;88.04
76687;BME280;65615;47.378;19.344;2024-02-16T09:26:49;101076.84;;;12.22;81.70
76687;BME280;65615;47.378;19.344;2024-02-16T09:31:02;101078.91;;;12.19;85.66
76687;BME280;65615;47.378;19.344;2024-02-16T09:35:10;101090.91;;;12.67;82.02
76687;BME280;65615;47.378;19.344;2024-02-16T09:39:26;101089.31;;;13.27;79.09
76687;BME280;65615;47.378;19.344;2024-02-16T09:43:32;101085.50;;;13.04;79.12
76687;BME280;65615;47.378;19.344;2024-02-16T09:47:39;101092.34;;;12.97;80.77
76687;BME280;65615;47.378;19.344;2024-02-16T09:52:12;101094.37;;;13.38;77.79
76687;BME280;65615;47.378;19.344;2024-02-16T09:56:17;101093.19;;;14.18;74.47
76687;BME280;65615;47.378;19.344;2024-02-16T10:00:20;101086.50;;;14.47;73.32
76687;BME280;65615;47.378;19.344;2024-02-16T10:04:24;101085.84;;;14.54;71.55
76687;BME280;65615;47.378;19.344;2024-02-16T10:08:29;101078.72;;;14.54;67.60
76687;BME280;65615;47.378;19.344;2024-02-16T10:12:33;101086.09;;;15.16;67.11
76687;BME280;65615;47.378;19.344;2024-02-16T10:16:38;101085.06;;;15.33;65.44
76687;BME280;65615;47.378;19.344;2024-02-16T10:21:28;101087.75;;;15.50;64.20
76687;BME280;65615;47.378;19.344;2024-02-16T10:25:33;101072.09;;;15.39;62.19
76687;BME280;65615;47.378;19.344;2024-02-16T10:29:48;101064.94;;;16.10;61.85
76687;BME280;65615;47.378;19.344;2024-02-16T10:34:20;101062.91;;;16.20;60.34
76687;BME280;65615;47.378;19.344;2024-02-16T10:38:30;101051.81;;;16.70;54.68
76687;BME280;65615;47.378;19.344;2024-02-16T10:42:38;101052.19;;;16.28;55.15
76687;BME280;65615;47.378;19.344;2024-02-16T10:46:44;101047.50;;;17.29;53.55
76687;BME280;65615;47.378;19.344;2024-02-16T10:50:52;101041.53;;;17.41;51.97
76687;BME280;65615;47.378;19.344;2024-02-16T10:55:21;101043.69;;;17.75;48.07
76687;BME280;65615;47.378;19.344;2024-02-16T10:59:27;101029.59;;;17.96;47.75
76687;BME280;65615;47.378;19.344;2024-02-16T11:03:46;101021.81;;;18.15;47.06
76687;BME280;65615;47.378;19.344;2024-02-16T11:08:03;101018.50;;;17.99;47.09
76687;BME280;65615;47.378;19.344;2024-02-16T11:12:07;101013.37;;;17.82;46.89
76687;BME280;65615;47.378;19.344;2024-02-16T11:16:12;101009.78;;;18.83;45.84
76687;BME280;65615;47.378;19.344;2024-02-16T11:20:17;101013.59;;;18.95;43.85
76687;BME280;65615;47.378;19.344;2024-02-16T11:24:34;101002.56;;;19.32;42.66
76687;BME280;65615;47.378;19.344;2024-02-16T11:28:53;101004.41;;;19.59;42.98
76687;BME280;65615;47.378;19.344;2024-02-16T11:33:05;101006.25;;;19.31;41.71
76687;BME280;65615;47.378;19.344;2024-02-16T11:37:26;101004.69;;;19.71;41.73
76687;BME280;65615;47.378;19.344;2024-02-16T11:41:36;100987.88;;;19.49;43.12
76687;BME280;65615;47.378;19.344;2024-02-16T11:46:13;100990.81;;;20.88;41.48
76687;BME280;65615;47.378;19.344;2024-02-16T11:50:20;100982.69;;;19.88;40.54
76687;BME280;65615;47.378;19.344;2024-02-16T11:54:47;100982.97;;;20.93;41.01
76687;BME280;65615;47.378;19.344;2024-02-16T11:59:25;100976.94;;;20.52;39.70
76687;BME280;65615;47.378;19.344;2024-02-16T12:03:52;100975.13;;;20.72;40.39
76687;BME280;65615;47.378;19.344;2024-02-16T12:08:06;100973.41;;;21.62;38.51
76687;BME280;65615;47.378;19.344;2024-02-16T12:12:41;100961.34;;;21.84;38.95
76687;BME280;65615;47.378;19.344;2024-02-16T12:17:19;100960.41;;;21.33;38.79
76687;BME280;65615;47.378;19.344;2024-02-16T12:26:41;100951.72;;;21.44;38.24
76687;BME280;65615;47.378;19.344;2024-02-16T12:35:31;100943.06;;;21.36;38.18
76687;BME280;65615;47.378;19.344;2024-02-16T13:24:01;100910.00;;;21.79;37.49
76687;BME280;65615;47.378;19.344;2024-02-16T13:28:05;100909.53;;;21.95;36.63
76687;BME280;65615;47.378;19.344;2024-02-16T13:32:08;100898.94;;;21.56;36.25
76687;BME280;65615;47.378;19.344;2024-02-16T13:36:12;100904.47;;;22.43;37.40
76687;BME280;65615;47.378;19.344;2024-02-16T13:40:16;100896.94;;;22.52;35.15
76687;BME280;65615;47.378;19.344;2024-02-16T13:44:20;100892.09;;;22.36;35.53
76687;BME280;65615;47.378;19.344;2024-02-16T13:48:23;100886.41;;;21.88;36.65
76687;BME280;65615;47.378;19.344;2024-02-16T13:52:26;100885.31;;;22.27;37.27
76687;BME280;65615;47.378;19.344;2024-02-16T13:56:29;100873.44;;;21.65;37.87
76687;BME280;65615;47.378;19.344;2024-02-16T14:00:32;100880.63;;;21.84;37.40
76687;BME280;65615;47.378;19.344;2024-02-16T14:04:37;100868.34;;;21.51;36.23
76687;BME280;65615;47.378;19.344;2024-02-16T14:08:43;100878.81;;;22.10;36.67
76687;BME280;65615;47.378;19.344;2024-02-16T14:12:47;100883.63;;;20.54;39.49
76687;BME280;65615;47.378;19.344;2024-02-16T14:16:50;100888.28;;;20.12;40.07
76687;BME280;65615;47.378;19.344;2024-02-16T14:20:53;100880.91;;;20.41;40.85
76687;BME280;65615;47.378;19.344;2024-02-16T14:30:07;100873.72;;;19.74;40.04
76687;BME280;65615;47.378;19.344;2024-02-16T14:34:11;100878.38;;;20.13;40.29
76687;BME280;65615;47.378;19.344;2024-02-16T14:38:36;100877.00;;;19.63;41.70
76687;BME280;65615;47.378;19.344;2024-02-16T14:43:02;100877.84;;;19.70;40.59
76687;BME280;65615;47.378;19.344;2024-02-16T14:47:32;100877.66;;;19.31;41.69
76687;BME280;65615;47.378;19.344;2024-02-16T15:06:04;100876.53;;;16.70;48.22
76687;BME280;65615;47.378;19.344;2024-02-16T15:15:02;100867.44;;;14.97;56.11
76687;BME280;65615;47.378;19.344;2024-02-16T15:19:45;100876.91;;;14.19;59.70
